Time;durP1;ratioP1;P1;durP2;ratioP2;P2;SDS_P1;SDS_P2;PMS_P1;PMS_P2;Temp;Humidity;BMP_temperature;BMP_pressure;BME280_temperature;BME280_humidity;BME280_pressure;Samples;Min_cycle;Max_cycle;Signal;HPM_P1;HPM_P2
2023/03/23 00:00:51;;;;;;;36.20;24.90;;;;;;;9.27;77.55;99826.95;103689;280;39693;-73
2023/03/23 00:03:28;;;;;;;35.80;22.90;;;;;;;9.28;77.70;99821.01;103598;280;39640;-72
2023/03/23 00:06:05;;;;;;;37.20;24.50;;;;;;;9.30;77.69;99819.35;103698;280;38845;-71
2023/03/23 00:08:44;;;;;;;37.30;24.30;;;;;;;9.32;77.45;99820.88;103663;280;38574;-72
2023/03/23 00:11:21;;;;;;;36.90;24.10;;;;;;;9.32;77.46;99819.29;103672;280;38265;-71
2023/03/23 00:13:57;;;;;;;35.70;23.50;;;;;;;9.31;77.35;99816.01;103662;281;38355;-71
2023/03/23 00:16:38;;;;;;;35.60;23.10;;;;;;;9.31;77.26;99814.63;103640;280;38401;-70
2023/03/23 00:19:13;;;;;;;36.40;24.20;;;;;;;9.30;77.38;99812.41;103659;280;39093;-73
2023/03/23 00:21:47;;;;;;;36.10;24.50;;;;;;;9.32;77.58;99814.60;103534;281;39244;-72
2023/03/23 00:24:21;;;;;;;35.00;23.40;;;;;;;9.33;77.51;99810.20;103705;280;38460;-73
2023/03/23 00:26:58;;;;;;;34.50;23.40;;;;;;;9.30;77.28;99810.69;103667;280;38285;-73
2023/03/23 00:29:33;;;;;;;37.20;22.70;;;;;;;9.28;77.39;99811.79;103649;280;38470;-72
2023/03/23 00:32:12;;;;;;;33.90;22.70;;;;;;;9.27;77.33;99805.75;103666;280;38686;-72
2023/03/23 00:34:45;;;;;;;;;;;;;;;9.28;77.38;99804.48;103682;280;38249;-74
2023/03/23 00:37:20;;;;;;;34.90;23.90;;;;;;;9.27;77.54;99800.89;103664;280;40174;-73
2023/03/23 00:39:57;;;;;;;36.50;23.20;;;;;;;9.29;77.50;99800.10;103612;280;175375;-72
2023/03/23 00:42:36;;;;;;;35.80;24.10;;;;;;;9.29;77.62;99799.73;103639;280;39471;-72
2023/03/23 00:45:12;;;;;;;35.50;22.50;;;;;;;9.29;77.52;99798.34;103670;280;39009;-74
2023/03/23 00:47:50;;;;;;;33.40;23.10;;;;;;;9.30;77.40;99801.27;103648;280;38233;-74
2023/03/23 00:50:24;;;;;;;35.40;23.00;;;;;;;9.32;77.68;99798.41;103689;280;38774;-73
2023/03/23 00:52:58;;;;;;;35.70;23.70;;;;;;;9.32;77.47;99797.52;103685;280;39233;-73
2023/03/23 00:55:33;;;;;;;34.00;22.50;;;;;;;9.32;77.48;99796.31;103677;280;39404;-73
2023/03/23 00:58:07;;;;;;;34.10;23.60;;;;;;;9.34;77.42;99790.33;103679;280;39805;-74
2023/03/23 01:00:44;;;;;;;32.20;22.80;;;;;;;9.35;77.37;99791.31;103656;280;38837;-73
2023/03/23 01:03:18;;;;;;;33.40;23.00;;;;;;;9.36;77.42;99785.71;103613;280;38857;-72
2023/03/23 01:05:52;;;;;;;35.40;23.30;;;;;;;9.39;77.45;99783.98;103680;280;38827;-72
2023/03/23 01:08:27;;;;;;;32.00;22.50;;;;;;;9.40;77.40;99784.64;103627;281;38477;-72
2023/03/23 01:11:08;;;;;;;34.60;21.90;;;;;;;9.42;77.37;99780.42;103710;280;39699;-72
2023/03/23 01:13:42;;;;;;;33.30;22.90;;;;;;;9.43;77.29;99775.66;103697;280;38697;-72
2023/03/23 01:16:17;;;;;;;35.10;23.50;;;;;;;9.46;77.28;99780.39;103698;280;40001;-70
2023/03/23 01:18:51;;;;;;;32.60;23.30;;;;;;;9.47;77.24;99786.44;103523;281;38262;-71
2023/03/23 01:21:26;;;;;;;34.60;23.30;;;;;;;9.48;77.28;99786.21;103785;279;38607;-72
2023/03/23 01:24:00;;;;;;;35.70;22.90;;;;;;;9.47;77.15;99786.96;103792;279;38489;-73
2023/03/23 01:26:34;;;;;;;31.00;21.00;;;;;;;9.47;77.18;99790.10;103742;279;38720;-72
2023/03/23 01:29:09;;;;;;;32.80;22.20;;;;;;;9.46;77.12;99789.10;103753;279;38649;-72
2023/03/23 01:31:43;;;;;;;35.00;22.50;;;;;;;9.48;77.17;99788.50;103753;279;38785;-72
2023/03/23 01:34:17;;;;;;;31.20;22.50;;;;;;;9.49;77.25;99789.49;103764;279;38517;-72
2023/03/23 01:36:51;;;;;;;30.90;22.00;;;;;;;9.50;77.21;99788.75;103760;279;40080;-71
2023/03/23 01:39:25;;;;;;;30.60;21.30;;;;;;;9.52;77.14;99786.25;103775;279;39575;-70
2023/03/23 01:41:59;;;;;;;33.20;22.30;;;;;;;9.52;76.91;99783.27;103743;279;39733;-72
2023/03/23 01:45:16;;;;;;;34.60;22.10;;;;;;;9.51;76.91;99779.83;103761;279;39695;-72
2023/03/23 01:47:51;;;;;;;32.10;22.70;;;;;;;9.49;76.94;99775.91;103635;279;38568;-72
2023/03/23 01:50:25;;;;;;;32.90;22.50;;;;;;;9.46;77.05;99773.92;103747;279;39505;-71
2023/03/23 01:52:59;;;;;;;29.20;21.00;;;;;;;9.46;76.98;99770.66;103760;279;38523;-72
2023/03/23 01:55:33;;;;;;;30.20;21.00;;;;;;;9.45;76.97;99766.86;103787;279;38455;-73
2023/03/23 01:58:07;;;;;;;28.90;21.20;;;;;;;9.46;77.05;99762.83;103751;279;39409;-72
2023/03/23 02:00:42;;;;;;;32.60;22.80;;;;;;;9.44;76.98;99762.74;103778;279;38801;-72
2023/03/23 02:03:17;;;;;;;31.90;21.90;;;;;;;9.42;77.08;99757.95;103747;279;38414;-70
2023/03/23 02:05:51;;;;;;;30.10;20.50;;;;;;;9.43;77.07;99759.14;103756;279;39719;-72
2023/03/23 02:08:26;;;;;;;28.20;20.20;;;;;;;9.43;77.21;99754.41;103750;279;39737;-72
2023/03/23 02:11:00;;;;;;;30.90;20.00;;;;;;;9.40;77.02;99756.27;103774;279;39686;-73
2023/03/23 02:13:35;;;;;;;30.70;20.00;;;;;;;9.37;77.10;99756.23;103742;279;39414;-73
2023/03/23 02:16:13;;;;;;;31.10;21.00;;;;;;;9.34;77.06;99754.82;103755;279;38365;-70
2023/03/23 02:19:01;;;;;;;27.90;19.90;;;;;;;9.31;77.06;99751.61;103754;279;38531;-72
2023/03/23 02:22:07;;;;;;;32.60;19.30;;;;;;;9.28;77.15;99748.95;103718;279;38496;-71
2023/03/23 02:25:06;;;;;;;29.70;19.70;;;;;;;9.27;77.43;99753.70;103700;279;38659;-71
2023/03/23 02:28:02;;;;;;;27.50;19.50;;;;;;;9.25;77.35;99747.34;103726;279;38253;-72
2023/03/23 02:30:52;;;;;;;30.40;20.80;;;;;;;9.22;77.40;99741.38;103741;279;38538;-72
2023/03/23 02:33:45;;;;;;;29.00;18.70;;;;;;;9.17;77.32;99739.35;103738;279;38729;-70
2023/03/23 02:36:25;;;;;;;31.50;19.30;;;;;;;9.12;77.40;99742.34;103726;279;38461;-72
2023/03/23 02:39:05;;;;;;;25.90;18.70;;;;;;;9.11;77.44;99742.91;103740;279;38998;-72
2023/03/23 02:41:44;;;;;;;27.50;19.60;;;;;;;9.10;77.58;99739.98;103719;279;38250;-71
2023/03/23 02:44:33;;;;;;;28.30;20.20;;;;;;;9.10;77.73;99741.00;103729;279;39747;-72
2023/03/23 02:47:09;;;;;;;33.50;18.50;;;;;;;9.12;78.01;99744.60;103622;269;38205;-74
2023/03/23 02:49:43;;;;;;;23.50;16.80;;;;;;;9.14;78.13;99746.76;103742;275;38379;-74
2023/03/23 02:52:20;;;;;;;26.60;17.30;;;;;;;9.19;78.16;99747.27;103699;279;38327;-73
2023/03/23 02:54:54;;;;;;;23.90;16.90;;;;;;;9.22;78.16;99746.80;103736;279;38692;-74
2023/03/23 02:57:28;;;;;;;32.20;17.90;;;;;;;9.24;78.21;99747.39;103699;279;39693;-72
2023/03/23 03:00:03;;;;;;;27.00;17.70;;;;;;;9.26;78.07;99751.30;103722;279;39453;-72
2023/03/23 03:02:40;;;;;;;25.50;18.20;;;;;;;9.27;78.06;99752.51;103730;279;38533;-72
2023/03/23 03:05:20;;;;;;;26.10;17.10;;;;;;;9.26;78.15;99749.91;103741;279;38522;-71
2023/03/23 03:08:03;;;;;;;24.00;16.90;;;;;;;9.26;78.26;99743.63;103765;279;38246;-72
2023/03/23 03:10:42;;;;;;;24.40;16.90;;;;;;;9.29;78.28;99742.61;103783;279;39419;-72
2023/03/23 03:13:26;;;;;;;25.60;16.00;;;;;;;9.33;78.14;99746.33;103635;279;175346;-71
2023/03/23 03:16:04;;;;;;;25.20;17.40;;;;;;;9.31;78.10;99745.16;103749;279;38464;-74
2023/03/23 03:18:40;;;;;;;25.50;17.00;;;;;;;9.30;78.08;99748.17;103622;280;39318;-74
2023/03/23 03:21:15;;;;;;;26.80;17.50;;;;;;;9.28;78.08;99747.38;103721;279;40095;-71
2023/03/23 03:23:49;;;;;;;24.30;16.80;;;;;;;9.25;78.16;99749.61;103740;279;38519;-72
2023/03/23 03:26:26;;;;;;;23.50;15.90;;;;;;;9.21;78.10;99749.59;103632;279;38263;-73
2023/03/23 03:29:00;;;;;;;25.30;16.70;;;;;;;9.19;78.19;99751.98;103688;280;38856;-71
2023/03/23 03:31:38;;;;;;;24.00;16.30;;;;;;;9.19;78.22;99750.21;103719;279;38951;-71
2023/03/23 03:34:12;;;;;;;26.40;16.50;;;;;;;9.18;78.25;99755.27;103761;279;38523;-71
2023/03/23 03:36:46;;;;;;;25.80;17.10;;;;;;;9.16;78.19;99755.23;103758;279;38424;-72
2023/03/23 03:39:21;;;;;;;22.60;15.90;;;;;;;9.09;78.14;99760.05;103776;279;39698;-73
2023/03/23 03:41:55;;;;;;;24.60;16.40;;;;;;;9.03;78.32;99765.66;103739;279;39749;-72
2023/03/23 03:44:29;;;;;;;21.80;15.40;;;;;;;9.00;78.47;99762.98;103681;279;38269;-74
2023/03/23 03:47:03;;;;;;;23.90;15.10;;;;;;;8.99;78.44;99760.09;103674;279;38806;-73
2023/03/23 03:49:37;;;;;;;23.00;16.00;;;;;;;8.97;78.39;99755.14;103686;279;38483;-70
2023/03/23 03:52:10;;;;;;;23.00;16.60;;;;;;;8.94;78.48;99747.27;103721;279;38508;-71
2023/03/23 03:54:44;;;;;;;24.20;16.20;;;;;;;8.89;78.59;99742.91;103724;279;39018;-74
2023/03/23 03:57:18;;;;;;;24.50;16.90;;;;;;;8.85;78.63;99741.02;103049;279;905742;-73
2023/03/23 03:59:52;;;;;;;23.90;15.90;;;;;;;8.84;78.64;99737.42;103071;279;909427;-72
2023/03/23 04:02:28;;;;;;;24.40;16.10;;;;;;;8.83;78.79;99728.41;103693;279;38631;-72
2023/03/23 04:05:03;;;;;;;23.10;16.60;;;;;;;8.81;78.87;99731.09;103462;279;175191;-72
2023/03/23 04:07:39;;;;;;;21.80;15.30;;;;;;;8.80;78.64;99736.02;103706;279;38215;-72
2023/03/23 04:10:14;;;;;;;20.50;15.10;;;;;;;8.75;78.46;99739.70;103745;279;38209;-73
2023/03/23 04:12:50;;;;;;;23.70;15.80;;;;;;;8.69;78.48;99734.88;103637;279;175404;-73
2023/03/23 04:15:25;;;;;;;22.80;15.00;;;;;;;8.66;78.87;99734.13;103711;279;38227;-71
2023/03/23 04:18:00;;;;;;;22.30;15.40;;;;;;;8.66;78.88;99737.79;103662;279;38258;-71
2023/03/23 04:20:34;;;;;;;21.90;15.10;;;;;;;8.66;79.00;99738.51;103714;279;38501;-71
2023/03/23 04:23:09;;;;;;;20.60;15.00;;;;;;;8.66;78.99;99739.02;103669;279;39766;-71
2023/03/23 04:25:43;;;;;;;21.70;15.40;;;;;;;8.61;78.82;99732.08;103683;279;39791;-73
2023/03/23 04:28:23;;;;;;;23.90;15.30;;;;;;;8.55;78.75;99733.88;103696;279;38565;-73
2023/03/23 04:31:00;;;;;;;21.10;15.30;;;;;;;8.53;78.83;99739.02;103643;279;38369;-73
2023/03/23 04:33:34;;;;;;;22.70;14.90;;;;;;;8.51;78.81;99736.48;103678;279;40123;-74
2023/03/23 04:36:10;;;;;;;23.70;15.30;;;;;;;8.49;78.82;99732.02;103732;279;39463;-72
2023/03/23 04:38:45;;;;;;;20.10;15.10;;;;;;;8.47;78.89;99728.30;103742;279;39838;-72
2023/03/23 04:41:20;;;;;;;23.10;15.90;;;;;;;8.46;79.10;99734.23;103774;279;39737;-72
2023/03/23 04:44:02;;;;;;;23.50;15.70;;;;;;;8.45;79.09;99733.25;103742;279;38811;-73
2023/03/23 04:46:37;;;;;;;23.40;15.60;;;;;;;8.42;78.95;99732.86;103738;279;38987;-72
2023/03/23 04:49:20;;;;;;;21.00;14.40;;;;;;;8.40;79.18;99726.84;103720;279;38409;-72
2023/03/23 04:51:54;;;;;;;20.60;14.60;;;;;;;8.40;79.53;99720.77;103823;279;38573;-72
2023/03/23 04:54:28;;;;;;;21.30;14.60;;;;;;;8.43;79.76;99726.72;103613;279;188841;-74
2023/03/23 04:57:03;;;;;;;22.50;14.70;;;;;;;8.45;79.85;99723.83;103749;279;38666;-72
2023/03/23 04:59:37;;;;;;;23.10;14.70;;;;;;;8.49;79.94;99722.65;103680;279;38778;-72
2023/03/23 05:02:12;;;;;;;22.40;14.30;;;;;;;8.53;79.94;99720.40;103766;279;38250;-71
2023/03/23 05:04:48;;;;;;;21.90;14.30;;;;;;;8.59;79.94;99720.52;103731;279;39956;-72
2023/03/23 05:07:23;;;;;;;18.50;14.30;;;;;;;8.65;79.93;99722.02;103779;279;38470;-70
2023/03/23 05:09:57;;;;;;;21.80;14.60;;;;;;;8.72;80.01;99719.83;103764;267;38258;-72
2023/03/23 05:12:32;;;;;;;20.10;14.60;;;;;;;8.78;80.09;99716.96;103642;280;39618;-72
2023/03/23 05:15:08;;;;;;;20.70;13.80;;;;;;;8.84;80.02;99717.08;103795;279;38256;-72
2023/03/23 05:17:43;;;;;;;22.10;14.40;;;;;;;8.89;79.91;99712.01;103726;279;38434;-72
2023/03/23 05:20:19;;;;;;;18.20;13.20;;;;;;;8.97;79.94;99714.08;103773;279;38519;-72
2023/03/23 05:22:56;;;;;;;20.10;15.00;;;;;;;9.06;79.81;99714.73;103787;279;38293;-72
2023/03/23 05:25:32;;;;;;;20.00;14.20;;;;;;;9.13;79.72;99709.58;103765;279;38523;-72
2023/03/23 05:28:08;;;;;;;23.70;15.10;;;;;;;9.20;79.46;99708.41;103735;279;39086;-73
2023/03/23 05:30:44;;;;;;;24.20;15.10;;;;;;;9.25;79.34;99709.92;103821;279;38899;-74
2023/03/23 05:33:18;;;;;;;20.10;14.00;;;;;;;9.30;79.30;99716.66;103745;279;38697;-73
2023/03/23 05:35:53;;;;;;;22.00;13.90;;;;;;;9.36;79.23;99716.94;103664;279;39781;-72
2023/03/23 05:38:28;;;;;;;17.90;13.20;;;;;;;9.43;79.05;99718.55;103734;279;38748;-73
2023/03/23 05:41:04;;;;;;;22.70;13.80;;;;;;;9.51;78.98;99722.91;103750;279;38496;-72
2023/03/23 05:43:38;;;;;;;21.10;14.30;;;;;;;9.58;78.86;99721.89;103826;279;38237;-71
2023/03/23 05:46:12;;;;;;;19.80;14.70;;;;;;;9.65;78.53;99721.58;103764;279;38490;-70
2023/03/23 05:48:48;;;;;;;20.60;13.30;;;;;;;9.72;78.49;99725.79;103637;279;38881;-72
2023/03/23 05:51:22;;;;;;;18.60;12.60;;;;;;;9.79;78.22;99720.08;103756;279;38221;-72
2023/03/23 05:53:57;;;;;;;17.90;12.80;;;;;;;9.85;77.93;99722.60;103763;279;38249;-73
2023/03/23 05:56:31;;;;;;;17.70;12.90;;;;;;;9.93;77.89;99727.80;103716;279;39645;-71
2023/03/23 05:59:05;;;;;;;16.30;13.30;;;;;;;10.02;77.77;99729.13;103324;279;641920;-70
2023/03/23 06:01:40;;;;;;;19.40;13.10;;;;;;;10.13;77.82;99728.96;103763;279;39589;-71
2023/03/23 06:04:14;;;;;;;18.10;13.10;;;;;;;10.25;77.76;99730.89;103735;279;38401;-72
2023/03/23 06:06:49;;;;;;;21.50;13.50;;;;;;;10.37;77.46;99733.48;103720;279;38718;-72
2023/03/23 06:09:24;;;;;;;20.20;12.90;;;;;;;10.48;77.31;99729.27;103728;279;37914;-73
2023/03/23 06:11:59;;;;;;;20.20;12.90;;;;;;;10.61;77.18;99729.84;103706;279;38234;-74
2023/03/23 06:14:33;;;;;;;18.70;13.20;;;;;;;10.75;76.84;99730.91;103742;279;38369;-73
2023/03/23 06:17:07;;;;;;;19.00;13.80;;;;;;;10.93;76.45;99730.96;103695;279;38348;-72
2023/03/23 06:19:42;;;;;;;17.00;12.60;;;;;;;11.04;76.24;99728.79;103759;279;38788;-74
2023/03/23 06:22:16;;;;;;;19.80;13.00;;;;;;;11.14;75.92;99727.96;103736;279;38629;-73
2023/03/23 06:24:50;;;;;;;19.40;13.00;;;;;;;11.23;75.35;99725.61;103671;279;38244;-71
2023/03/23 06:27:24;;;;;;;17.80;12.00;;;;;;;11.33;75.24;99725.90;103731;279;38410;-73
2023/03/23 06:30:00;;;;;;;15.50;11.80;;;;;;;11.47;74.44;99729.55;103780;279;38406;-73
2023/03/23 06:32:35;;;;;;;16.40;11.40;;;;;;;11.67;74.96;99730.11;103620;279;175170;-72
2023/03/23 06:35:12;;;;;;;15.30;11.10;;;;;;;11.90;74.79;99728.05;103734;279;38430;-76
2023/03/23 06:37:46;;;;;;;15.50;11.60;;;;;;;12.10;74.43;99734.12;103782;279;38621;-75
2023/03/23 06:40:21;;;;;;;19.00;11.90;;;;;;;12.24;73.44;99727.56;103715;279;38490;-72
2023/03/23 06:42:56;;;;;;;16.50;11.70;;;;;;;12.36;72.76;99724.82;103697;279;39373;-71
2023/03/23 06:45:30;;;;;;;15.40;11.30;;;;;;;12.52;72.73;99716.08;103714;279;38488;-72
2023/03/23 06:48:04;;;;;;;14.20;11.20;;;;;;;12.74;72.57;99716.03;103717;279;38479;-73
2023/03/23 06:50:38;;;;;;;16.10;11.60;;;;;;;12.92;71.65;99713.59;103773;279;40115;-72
2023/03/23 06:53:12;;;;;;;17.40;10.90;;;;;;;13.01;70.26;99714.80;103732;279;38582;-73
2023/03/23 06:55:46;;;;;;;16.10;11.20;;;;;;;13.06;70.32;99717.14;103753;279;38603;-71
2023/03/23 06:58:22;;;;;;;16.20;11.90;;;;;;;13.17;70.07;99721.54;103730;279;38626;-70
2023/03/23 07:00:59;;;;;;;15.90;10.60;;;;;;;13.37;69.84;99720.77;103723;279;39046;-73
2023/03/23 07:03:32;;;;;;;14.00;10.70;;;;;;;13.59;69.97;99725.20;103740;279;38448;-72
2023/03/23 07:06:08;;;;;;;15.80;10.10;;;;;;;13.89;69.89;99727.41;103767;279;38345;-71
2023/03/23 07:08:42;;;;;;;15.60;10.90;;;;;;;14.26;69.60;99729.44;103715;279;38752;-73
2023/03/23 07:11:16;;;;;;;15.60;10.60;;;;;;;14.72;68.84;99727.42;103743;279;38710;-73
2023/03/23 07:13:53;;;;;;;13.50;10.20;;;;;;;15.12;67.41;99728.41;103763;279;39891;-72
2023/03/23 07:16:27;;;;;;;14.20;10.10;;;;;;;15.47;66.02;99729.36;103760;279;38273;-73
2023/03/23 07:19:02;;;;;;;15.40;10.10;;;;;;;15.86;65.87;99730.77;103751;279;38347;-72
2023/03/23 07:21:37;;;;;;;12.20;9.10;;;;;;;16.11;64.15;99734.29;103733;279;38542;-73
2023/03/23 07:24:14;;;;;;;12.50;9.40;;;;;;;16.20;62.32;99731.17;103555;281;41379;-72
2023/03/23 07:26:48;;;;;;;12.50;9.10;;;;;;;16.30;61.01;99734.37;103728;279;38510;-73
2023/03/23 07:29:23;;;;;;;13.60;9.20;;;;;;;16.42;61.08;99732.80;103740;283;39562;-73
2023/03/23 07:31:57;;;;;;;14.20;9.20;;;;;;;16.76;61.32;99735.23;103692;279;38471;-72
2023/03/23 07:34:31;;;;;;;11.60;9.10;;;;;;;17.42;61.09;99735.89;103748;279;39761;-74
2023/03/23 07:37:05;;;;;;;13.20;9.10;;;;;;;18.21;58.83;99736.50;103740;279;38493;-73
2023/03/23 07:39:42;;;;;;;11.10;8.60;;;;;;;18.63;56.01;99732.59;103721;279;38228;-73
2023/03/23 07:42:18;;;;;;;10.20;8.50;;;;;;;18.99;55.66;99730.84;103718;279;38855;-76
2023/03/23 07:44:54;;;;;;;11.10;8.30;;;;;;;19.54;54.80;99734.02;103597;280;38289;-73
2023/03/23 07:47:28;;;;;;;9.60;8.20;;;;;;;19.90;53.09;99729.84;103699;279;38295;-73
2023/03/23 07:50:03;;;;;;;12.20;7.70;;;;;;;20.19;51.07;99728.52;103733;279;38723;-73
2023/03/23 07:52:37;;;;;;;12.20;8.20;;;;;;;20.41;50.79;99725.73;103699;279;38613;-73
2023/03/23 07:55:17;;;;;;;11.60;7.80;;;;;;;20.78;49.17;99727.70;103683;279;38247;-74
2023/03/23 07:57:51;;;;;;;14.20;8.10;;;;;;;21.48;48.30;99720.58;103613;279;38380;-74
2023/03/23 08:00:26;;;;;;;10.90;7.30;;;;;;;22.25;47.43;99717.48;103706;279;39555;-73
2023/03/23 08:03:02;;;;;;;9.00;7.10;;;;;;;22.72;46.26;99716.13;103684;279;38453;-75
2023/03/23 08:05:36;;;;;;;8.70;7.00;;;;;;;22.69;44.79;99717.36;103058;279;894659;-74
2023/03/23 08:08:10;;;;;;;11.90;7.50;;;;;;;22.46;44.18;99714.33;103649;279;38533;-74
2023/03/23 08:10:45;;;;;;;9.80;7.30;;;;;;;22.30;44.60;99715.75;103703;279;38277;-73
2023/03/23 08:13:19;;;;;;;10.10;7.20;;;;;;;22.26;43.94;99716.27;103612;279;38516;-72
2023/03/23 08:15:53;;;;;;;13.70;7.30;;;;;;;22.44;44.19;99705.29;103676;280;38728;-73
2023/03/23 08:18:28;;;;;;;9.70;7.20;;;;;;;22.71;43.68;99705.82;103686;279;38000;-71
2023/03/23 08:21:02;;;;;;;11.20;6.90;;;;;;;22.90;42.83;99702.21;103595;279;174284;-72
2023/03/23 08:23:37;;;;;;;10.80;6.40;;;;;;;22.65;41.86;99700.42;103703;279;38294;-72
2023/03/23 08:26:11;;;;;;;13.00;6.10;;;;;;;22.19;41.20;99698.33;103704;279;38298;-74
2023/03/23 08:28:46;;;;;;;10.40;6.80;;;;;;;21.66;41.71;99684.57;103662;279;38516;-73
2023/03/23 08:31:20;;;;;;;10.30;7.00;;;;;;;21.22;42.52;99679.82;103722;279;39555;-74
2023/03/23 08:33:58;;;;;;;10.40;7.30;;;;;;;20.95;43.46;99679.13;103582;279;174715;-74
2023/03/23 08:36:32;;;;;;;9.40;6.90;;;;;;;20.78;43.43;99683.73;103571;279;171981;-71
2023/03/23 08:39:07;;;;;;;10.00;7.30;;;;;;;20.60;43.01;99684.48;103742;279;39425;-73
2023/03/23 08:41:42;;;;;;;8.60;6.60;;;;;;;20.61;43.79;99679.98;103681;279;38330;-75
2023/03/23 08:44:16;;;;;;;11.10;6.90;;;;;;;20.60;43.24;99679.36;103724;279;38257;-74
2023/03/23 08:46:54;;;;;;;8.20;6.70;;;;;;;20.38;43.23;99684.01;103685;268;38458;-75
2023/03/23 08:49:29;;;;;;;11.50;7.30;;;;;;;20.10;43.47;99684.91;103698;279;39358;-74
2023/03/23 08:52:03;;;;;;;8.70;6.70;;;;;;;19.83;44.02;99688.36;103735;279;38954;-74
2023/03/23 08:54:37;;;;;;;11.20;6.80;;;;;;;19.55;44.38;99688.77;103673;279;39403;-73
2023/03/23 08:57:12;;;;;;;7.60;6.30;;;;;;;19.35;44.99;99687.13;103673;279;38225;-74
2023/03/23 08:59:46;;;;;;;9.20;6.40;;;;;;;19.22;45.62;99689.30;103711;279;38415;-73
2023/03/23 09:02:20;;;;;;;9.40;6.10;;;;;;;19.07;45.90;99694.45;103674;279;39382;-74
2023/03/23 09:04:54;;;;;;;10.40;6.30;;;;;;;18.96;46.39;99694.71;103690;279;38351;-74
2023/03/23 09:07:28;;;;;;;8.60;6.30;;;;;;;18.83;46.62;99702.09;103616;280;39632;-74
2023/03/23 09:10:02;;;;;;;7.20;5.70;;;;;;;18.69;46.29;99703.47;103735;279;38683;-74
2023/03/23 09:12:36;;;;;;;8.10;5.80;;;;;;;18.48;46.25;99698.94;103674;279;38234;-74
2023/03/23 09:15:13;;;;;;;9.50;6.30;;;;;;;18.31;46.73;99689.24;103705;279;38245;-71
2023/03/23 09:17:49;;;;;;;9.40;5.90;;;;;;;18.18;46.87;99683.38;103681;279;38355;-72
2023/03/23 09:20:25;;;;;;;7.30;5.30;;;;;;;18.05;47.27;99685.65;103678;279;38443;-73
2023/03/23 09:22:59;;;;;;;8.80;5.60;;;;;;;18.01;47.56;99685.98;103710;279;39991;-73
2023/03/23 09:25:33;;;;;;;9.90;5.60;;;;;;;17.95;47.58;99692.11;103789;279;38438;-73
2023/03/23 09:28:07;;;;;;;7.70;5.80;;;;;;;17.85;47.02;99689.55;103761;279;38880;-72
2023/03/23 09:30:43;;;;;;;8.20;5.40;;;;;;;17.72;47.29;99687.02;103655;279;174893;-72
2023/03/23 09:33:17;;;;;;;6.60;5.50;;;;;;;17.68;47.84;99683.99;103727;279;38262;-71
2023/03/23 09:35:52;;;;;;;7.90;5.60;;;;;;;17.68;47.72;99680.27;103743;279;38803;-72
2023/03/23 09:38:26;;;;;;;7.60;5.30;;;;;;;17.67;47.47;99674.54;103750;279;38384;-74
2023/03/23 09:41:06;;;;;;;7.40;5.00;;;;;;;17.66;47.50;99666.13;103758;279;38532;-72
2023/03/23 09:43:56;;;;;;;7.50;5.40;;;;;;;17.67;47.68;99666.07;103757;279;38235;-74
2023/03/23 09:46:49;;;;;;;7.60;4.90;;;;;;;17.76;47.92;99661.66;103743;279;38758;-72
2023/03/23 09:49:25;;;;;;;7.00;5.30;;;;;;;17.92;47.47;99651.05;103810;279;38366;-74
2023/03/23 09:52:00;;;;;;;6.80;4.50;;;;;;;18.09;47.83;99647.07;103721;279;39675;-73
2023/03/23 09:54:39;;;;;;;5.50;4.60;;;;;;;18.30;47.37;99647.79;103797;279;38291;-74
2023/03/23 09:57:19;;;;;;;6.30;4.40;;;;;;;18.49;47.22;99649.41;103725;279;38287;-74
2023/03/23 09:59:57;;;;;;;6.10;4.10;;;;;;;18.70;45.97;99647.71;103741;279;39437;-72
2023/03/23 10:02:35;;;;;;;6.40;3.60;;;;;;;19.04;46.55;99648.04;103731;279;39519;-73
2023/03/23 10:05:31;;;;;;;5.00;3.40;;;;;;;19.45;45.13;99645.09;103736;279;38458;-75
2023/03/23 10:08:11;;;;;;;4.80;3.10;;;;;;;19.84;44.88;99636.38;103614;279;38936;-75
2023/03/23 10:10:55;;;;;;;4.70;3.40;;;;;;;20.17;43.90;99635.36;103663;279;38664;-73
2023/03/23 10:13:41;;;;;;;6.10;3.00;;;;;;;20.26;41.96;99634.05;103764;279;38556;-74
2023/03/23 10:16:18;;;;;;;6.40;3.40;;;;;;;20.30;41.93;99632.80;103767;279;38499;-73
2023/03/23 10:18:59;;;;;;;4.30;3.30;;;;;;;20.34;41.61;99624.96;103771;279;38735;-73
2023/03/23 10:21:33;;;;;;;5.30;3.40;;;;;;;20.38;41.26;99623.55;103741;279;38330;-72
2023/03/23 10:24:11;;;;;;;4.60;3.20;;;;;;;20.38;40.81;99616.67;103756;279;38476;-72
2023/03/23 10:26:56;;;;;;;5.30;3.30;;;;;;;20.40;41.49;99615.65;103750;279;38569;-74
2023/03/23 10:29:31;;;;;;;5.90;2.90;;;;;;;20.37;40.18;99618.36;103779;279;38483;-73
2023/03/23 10:32:10;;;;;;;4.50;3.20;;;;;;;20.29;39.97;99615.70;103764;279;39397;-73
2023/03/23 10:34:51;;;;;;;5.00;3.10;;;;;;;20.41;40.63;99615.89;103738;279;38690;-72
2023/03/23 10:37:27;;;;;;;7.40;3.20;;;;;;;20.54;40.24;99610.23;103740;279;38262;-73
2023/03/23 10:40:09;;;;;;;5.00;3.20;;;;;;;20.64;40.31;99608.88;103750;279;38735;-73
2023/03/23 10:42:44;;;;;;;5.30;3.40;;;;;;;20.73;40.27;99620.06;103714;279;39416;-73
2023/03/23 10:45:22;;;;;;;7.50;3.70;;;;;;;20.82;40.06;99617.91;103754;279;38779;-73
2023/03/23 10:48:00;;;;;;;5.20;3.40;;;;;;;20.89;40.24;99614.30;103792;279;38512;-73
2023/03/23 10:50:36;;;;;;;6.10;3.10;;;;;;;21.01;39.65;99617.44;103797;279;38479;-74
2023/03/23 10:53:26;;;;;;;6.30;3.30;;;;;;;21.16;40.42;99610.55;103719;279;38231;-74
2023/03/23 10:56:00;;;;;;;7.20;3.50;;;;;;;21.33;40.36;99608.95;103764;279;38215;-73
2023/03/23 10:58:36;;;;;;;6.40;3.90;;;;;;;21.45;39.49;99612.73;103732;279;38684;-74
2023/03/23 11:01:13;;;;;;;5.60;3.40;;;;;;;21.36;38.09;99613.09;103787;279;38538;-73
2023/03/23 11:03:50;;;;;;;6.90;3.50;;;;;;;21.23;38.43;99611.26;103639;279;38794;-73
2023/03/23 11:06:27;;;;;;;4.40;3.30;;;;;;;21.20;38.60;99605.58;103733;279;38376;-74
2023/03/23 11:09:04;;;;;;;8.80;2.80;;;;;;;21.13;38.44;99602.63;103762;279;38312;-73
2023/03/23 11:11:43;;;;;;;4.20;2.70;;;;;;;21.05;38.41;99595.96;103727;279;38454;-73
2023/03/23 11:14:25;;;;;;;5.50;2.60;;;;;;;20.95;38.80;99594.75;103769;279;39937;-73
2023/03/23 11:17:01;;;;;;;4.20;2.80;;;;;;;20.94;38.34;99593.70;103743;279;38214;-76
2023/03/23 11:19:38;;;;;;;4.60;2.90;;;;;;;20.86;38.26;99592.23;103679;279;39440;-74
2023/03/23 11:22:17;;;;;;;4.80;2.20;;;;;;;20.91;39.07;99593.02;103726;279;38318;-73
2023/03/23 11:24:55;;;;;;;4.00;2.40;;;;;;;20.97;38.00;99581.67;103782;279;38422;-72
2023/03/23 11:27:28;;;;;;;;;;;;;;;20.98;38.42;99576.57;103758;279;38427;-73
2023/03/23 11:30:10;;;;;;;3.50;2.20;;;;;;;21.02;38.53;99569.79;103780;279;39583;-73
2023/03/23 11:32:47;;;;;;;3.50;2.50;;;;;;;21.11;38.40;99567.70;103727;279;39434;-74
2023/03/23 11:35:24;;;;;;;4.60;2.50;;;;;;;21.18;37.77;99569.77;103784;279;39473;-74
2023/03/23 11:37:58;;;;;;;2.60;2.40;;;;;;;21.15;36.97;99569.46;103757;279;39057;-72
2023/03/23 11:40:35;;;;;;;4.60;2.30;;;;;;;21.13;37.20;99560.95;103750;279;38652;-73
2023/03/23 11:43:15;;;;;;;4.90;2.70;;;;;;;21.10;37.51;99548.98;103597;279;38278;-73
2023/03/23 11:45:57;;;;;;;2.70;2.10;;;;;;;21.00;36.81;99536.64;103685;279;38227;-74
2023/03/23 11:48:36;;;;;;;6.10;2.70;;;;;;;20.86;37.29;99538.51;103604;279;39546;-74
2023/03/23 11:51:14;;;;;;;2.50;2.20;;;;;;;20.81;38.21;99535.80;103687;279;38510;-71
2023/03/23 11:53:57;;;;;;;4.20;2.30;;;;;;;20.74;37.95;99538.79;103696;279;38396;-71
2023/03/23 11:56:34;;;;;;;3.90;2.30;;;;;;;20.61;37.85;99534.80;103687;279;38411;-71
2023/03/23 11:59:17;;;;;;;3.60;2.10;;;;;;;20.52;37.45;99539.19;103712;267;38425;-72
2023/03/23 12:01:57;;;;;;;3.60;2.20;;;;;;;20.43;38.31;99527.82;103713;279;39392;-75
2023/03/23 12:04:44;;;;;;;2.80;1.90;;;;;;;20.41;38.91;99529.17;103723;279;39997;-72
2023/03/23 12:07:50;;;;;;;3.00;2.30;;;;;;;20.39;39.10;99519.85;103639;279;38592;-74
2023/03/23 12:10:32;;;;;;;4.10;2.30;;;;;;;20.36;39.25;99531.63;103633;279;38782;-73